FDX456 MTPP-KBOS
Flight info
| Callsign | FDX456 |
|---|---|
| Flight time | N/A |
| Altitude | 37000 |
| Route | SEDET DCT SEPTO UG444 BOTES G444 GTK A554 LAMER/M085F380 L453 SAUCR/M085F390 Y485 CHUBY/M085F380 Y485 HOBOH/M085F390 Y485 SILLY/N0480F390 Y485 YAALE Y495 MOUGH/N0481F400 Y495 OWENZ DCT SHERL/N0480F390 DCT HTO DCT PROVI ROBUC3 |
| Aircraft | B742/H-SDFHIRWXY/L |
Departure
| Time | 2026-04-23 20:44 |
|---|---|
| Airport | Toussaint Louverture International Airport (MTPP) |
Arrival
| Time | N/A |
|---|---|
| Airport | Boston Logan International Airport (KBOS) |
| Time | Latitude | Longitude | Altitude | Speed | Heading |
|---|---|---|---|---|---|
| 2026-04-23 20:24 | 18.57640 | -72.29333 | 196 ft | 0 kts | 177° |
| 2026-04-23 20:28 | 18.57642 | -72.29333 | 196 ft | 1 kts | 178° |
| 2026-04-23 20:28 | 18.57656 | -72.29331 | 196 ft | 2 kts | 201° |
| 2026-04-23 20:28 | 18.57670 | -72.29324 | 196 ft | 2 kts | 217° |
| 2026-04-23 20:28 | 18.57681 | -72.29312 | 196 ft | 2 kts | 233° |
| 2026-04-23 20:29 | 18.57688 | -72.29299 | 196 ft | 2 kts | 249° |
| 2026-04-23 20:29 | 18.57692 | -72.29284 | 196 ft | 2 kts | 265° |
| 2026-04-23 20:29 | 18.57692 | -72.29268 | 195 ft | 2 kts | 271° |
| 2026-04-23 20:29 | 18.57692 | -72.29252 | 195 ft | 2 kts | 276° |
| 2026-04-23 20:30 | 18.57689 | -72.29237 | 195 ft | 2 kts | 282° |
| 2026-04-23 20:30 | 18.57685 | -72.29213 | 195 ft | 0 kts | 269° |
| 2026-04-23 20:30 | 18.57685 | -72.29209 | 195 ft | 0 kts | 267° |
| 2026-04-23 20:36 | 18.57685 | -72.29210 | 195 ft | 0 kts | 267° |
| 2026-04-23 20:36 | 18.57685 | -72.29217 | 195 ft | 2 kts | 267° |
| 2026-04-23 20:36 | 18.57683 | -72.29257 | 195 ft | 8 kts | 267° |
| 2026-04-23 20:37 | 18.57679 | -72.29332 | 196 ft | 11 kts | 267° |
| 2026-04-23 20:37 | 18.57684 | -72.29423 | 196 ft | 13 kts | 301° |
| 2026-04-23 20:37 | 18.57757 | -72.29459 | 196 ft | 10 kts | 354° |
| 2026-04-23 20:37 | 18.57824 | -72.29463 | 196 ft | 8 kts | 356° |
| 2026-04-23 20:38 | 18.57887 | -72.29467 | 195 ft | 9 kts | 358° |
| 2026-04-23 20:38 | 18.57956 | -72.29468 | 195 ft | 10 kts | 9° |
| 2026-04-23 20:38 | 18.57997 | -72.29421 | 195 ft | 9 kts | 86° |
| 2026-04-23 20:38 | 18.58001 | -72.29349 | 195 ft | 10 kts | 87° |
| 2026-04-23 20:39 | 18.58005 | -72.29263 | 195 ft | 13 kts | 87° |
| 2026-04-23 20:39 | 18.58010 | -72.29144 | 195 ft | 18 kts | 87° |
| 2026-04-23 20:39 | 18.58018 | -72.28993 | 195 ft | 22 kts | 86° |
| 2026-04-23 20:39 | 18.58029 | -72.28810 | 194 ft | 26 kts | 86° |
| 2026-04-23 20:40 | 18.58040 | -72.28611 | 195 ft | 27 kts | 86° |
| 2026-04-23 20:40 | 18.58050 | -72.28411 | 195 ft | 26 kts | 88° |
| 2026-04-23 20:40 | 18.58058 | -72.28220 | 196 ft | 24 kts | 87° |
| 2026-04-23 20:40 | 18.58064 | -72.28043 | 196 ft | 23 kts | 88° |
| 2026-04-23 20:41 | 18.58069 | -72.27913 | 196 ft | 12 kts | 89° |
| 2026-04-23 20:41 | 18.58054 | -72.27868 | 196 ft | 3 kts | 126° |
| 2026-04-23 20:41 | 18.58047 | -72.27846 | 196 ft | 2 kts | 80° |
| 2026-04-23 20:41 | 18.58057 | -72.27837 | 196 ft | 2 kts | 2° |
| 2026-04-23 20:42 | 18.58070 | -72.27844 | 196 ft | 3 kts | 303° |
| 2026-04-23 20:42 | 18.58074 | -72.27861 | 196 ft | 0 kts | 268° |
| 2026-04-23 20:43 | 18.58073 | -72.27862 | 196 ft | 2 kts | 268° |
| 2026-04-23 20:43 | 18.58059 | -72.28211 | 196 ft | 94 kts | 267° |
| 2026-04-23 20:43 | 18.58008 | -72.29198 | 196 ft | 171 kts | 268° |
| 2026-04-23 20:43 | 18.57946 | -72.30622 | 485 ft | 210 kts | 269° |
| 2026-04-23 20:44 | 18.57907 | -72.32143 | 1471 ft | 209 kts | 271° |
| 2026-04-23 20:44 | 18.57935 | -72.33675 | 2148 ft | 211 kts | 274° |
| 2026-04-23 20:44 | 18.58226 | -72.35247 | 2595 ft | 223 kts | 281° |
| 2026-04-23 20:44 | 18.58578 | -72.36845 | 3099 ft | 231 kts | 298° |
| 2026-04-23 20:45 | 18.59548 | -72.38245 | 3681 ft | 237 kts | 313° |
| 2026-04-23 20:45 | 18.60677 | -72.39555 | 4186 ft | 243 kts | 314° |
| 2026-04-23 20:45 | 18.61874 | -72.40888 | 4643 ft | 260 kts | 315° |
| 2026-04-23 20:45 | 18.63176 | -72.42321 | 5209 ft | 276 kts | 315° |
| 2026-04-23 20:46 | 18.64536 | -72.43811 | 5864 ft | 289 kts | 315° |
| 2026-04-23 20:46 | 18.65975 | -72.45386 | 6606 ft | 299 kts | 314° |
| 2026-04-23 20:46 | 18.67560 | -72.46803 | 7357 ft | 306 kts | 329° |
| 2026-04-23 20:46 | 18.69571 | -72.47641 | 8161 ft | 313 kts | 348° |
| 2026-04-23 20:47 | 18.71780 | -72.47739 | 8982 ft | 319 kts | 7° |
| 2026-04-23 20:47 | 18.73933 | -72.47108 | 9821 ft | 324 kts | 21° |
| 2026-04-23 20:47 | 18.75970 | -72.46087 | 10681 ft | 327 kts | 26° |
| 2026-04-23 20:47 | 18.77992 | -72.44940 | 11560 ft | 329 kts | 27° |
| 2026-04-23 20:48 | 18.80004 | -72.43774 | 12420 ft | 331 kts | 27° |
| 2026-04-23 20:48 | 18.82034 | -72.42601 | 13261 ft | 332 kts | 27° |
| 2026-04-23 20:48 | 18.84081 | -72.41421 | 14091 ft | 333 kts | 27° |
| 2026-04-23 20:48 | 18.86126 | -72.40248 | 14870 ft | 334 kts | 26° |
| 2026-04-23 20:49 | 18.88181 | -72.39068 | 15632 ft | 335 kts | 26° |
| 2026-04-23 20:49 | 18.90268 | -72.37870 | 16379 ft | 336 kts | 26° |
| 2026-04-23 20:49 | 18.92313 | -72.36696 | 17070 ft | 336 kts | 26° |
| 2026-04-23 20:49 | 18.94383 | -72.35507 | 17742 ft | 337 kts | 26° |
| 2026-04-23 20:50 | 18.96439 | -72.34325 | 18392 ft | 338 kts | 26° |
| 2026-04-23 20:50 | 18.98524 | -72.33127 | 19048 ft | 339 kts | 25° |
| 2026-04-23 20:50 | 19.00622 | -72.31921 | 19673 ft | 340 kts | 25° |
| 2026-04-23 20:50 | 19.02709 | -72.30721 | 20284 ft | 341 kts | 25° |
| 2026-04-23 20:51 | 19.04816 | -72.29508 | 20906 ft | 341 kts | 25° |
| 2026-04-23 20:51 | 19.06890 | -72.28315 | 21530 ft | 340 kts | 24° |
| 2026-04-23 20:51 | 19.09003 | -72.27100 | 22085 ft | 343 kts | 24° |
| 2026-04-23 20:51 | 19.11125 | -72.25879 | 22443 ft | 351 kts | 24° |
| 2026-04-23 20:52 | 19.13308 | -72.24623 | 22806 ft | 359 kts | 24° |
| 2026-04-23 20:52 | 19.15563 | -72.23323 | 23175 ft | 367 kts | 24° |
| 2026-04-23 20:52 | 19.17815 | -72.21976 | 23534 ft | 373 kts | 22° |
| 2026-04-23 20:52 | 19.20182 | -72.20752 | 23899 ft | 380 kts | 21° |
| 2026-04-23 20:53 | 19.22603 | -72.19538 | 24262 ft | 387 kts | 21° |
| 2026-04-23 20:53 | 19.25067 | -72.18276 | 24632 ft | 395 kts | 21° |
| 2026-04-23 20:53 | 19.27555 | -72.16975 | 24999 ft | 402 kts | 22° |
| 2026-04-23 20:53 | 19.30109 | -72.15627 | 25370 ft | 409 kts | 22° |
| 2026-04-23 20:54 | 19.32679 | -72.14267 | 25732 ft | 415 kts | 22° |
| 2026-04-23 20:54 | 19.35311 | -72.12874 | 26100 ft | 422 kts | 21° |
| 2026-04-23 20:54 | 19.37982 | -72.11459 | 26469 ft | 428 kts | 21° |
| 2026-04-23 20:54 | 19.40675 | -72.10033 | 26837 ft | 434 kts | 22° |
| 2026-04-23 20:55 | 19.43432 | -72.08572 | 27209 ft | 440 kts | 21° |
| 2026-04-23 20:55 | 19.46212 | -72.07098 | 27578 ft | 446 kts | 21° |
| 2026-04-23 20:55 | 19.49017 | -72.05611 | 27946 ft | 451 kts | 21° |
| 2026-04-23 20:55 | 19.51830 | -72.04121 | 28311 ft | 457 kts | 21° |
| 2026-04-23 20:56 | 19.54713 | -72.02590 | 28682 ft | 462 kts | 21° |
| 2026-04-23 20:56 | 19.57636 | -72.01039 | 29054 ft | 467 kts | 21° |
| 2026-04-23 20:56 | 19.60570 | -71.99481 | 29424 ft | 471 kts | 21° |
| 2026-04-23 20:56 | 19.63519 | -71.97934 | 29787 ft | 473 kts | 18° |
| 2026-04-23 20:57 | 19.66611 | -71.96762 | 30161 ft | 469 kts | 9° |
| 2026-04-23 20:57 | 19.69834 | -71.95869 | 30538 ft | 470 kts | 7° |
| 2026-04-23 20:57 | 19.73027 | -71.95080 | 30908 ft | 473 kts | 6° |
| 2026-04-23 20:57 | 19.76308 | -71.94283 | 31285 ft | 476 kts | 6° |
| 2026-04-23 20:58 | 19.79563 | -71.93483 | 31657 ft | 479 kts | 6° |
| 2026-04-23 20:58 | 19.82822 | -71.92667 | 32028 ft | 483 kts | 6° |
| 2026-04-23 20:58 | 19.86135 | -71.91827 | 32403 ft | 486 kts | 6° |
| 2026-04-23 20:58 | 19.89430 | -71.90984 | 32774 ft | 488 kts | 6° |
| 2026-04-23 20:59 | 19.92776 | -71.90123 | 33188 ft | 491 kts | 6° |
| 2026-04-23 20:59 | 19.96143 | -71.89255 | 33621 ft | 494 kts | 6° |
| 2026-04-23 20:59 | 19.99488 | -71.88392 | 34048 ft | 496 kts | 6° |
| 2026-04-23 20:59 | 20.02879 | -71.87517 | 34484 ft | 498 kts | 6° |
| 2026-04-23 21:00 | 20.06280 | -71.86638 | 34923 ft | 501 kts | 6° |
| 2026-04-23 21:00 | 20.09669 | -71.85763 | 35356 ft | 503 kts | 6° |
| 2026-04-23 21:00 | 20.13088 | -71.84879 | 35797 ft | 504 kts | 6° |
| 2026-04-23 21:00 | 20.16504 | -71.83994 | 36216 ft | 505 kts | 6° |
| 2026-04-23 21:01 | 20.19986 | -71.83095 | 36402 ft | 511 kts | 6° |
| 2026-04-23 21:01 | 20.23455 | -71.82201 | 36427 ft | 519 kts | 6° |
| 2026-04-23 21:01 | 20.30652 | -71.80344 | 36429 ft | 536 kts | 7° |
| 2026-04-23 21:02 | 20.38012 | -71.78437 | 36427 ft | 546 kts | 7° |
| 2026-04-23 21:02 | 20.45234 | -71.75583 | 36427 ft | 563 kts | 21° |
| 2026-04-23 21:03 | 20.52153 | -71.71467 | 36427 ft | 569 kts | 25° |
| 2026-04-23 21:03 | 20.59063 | -71.67183 | 36422 ft | 569 kts | 24° |
| 2026-04-23 21:04 | 20.65957 | -71.63009 | 36425 ft | 569 kts | 24° |
| 2026-04-23 21:04 | 20.72906 | -71.58855 | 36423 ft | 570 kts | 23° |
| 2026-04-23 21:05 | 20.79868 | -71.54695 | 36423 ft | 569 kts | 23° |
| 2026-04-23 21:05 | 20.86773 | -71.50562 | 36425 ft | 570 kts | 23° |
| 2026-04-23 21:06 | 20.93733 | -71.46388 | 36426 ft | 570 kts | 23° |
| 2026-04-23 21:06 | 21.00680 | -71.42217 | 36424 ft | 570 kts | 23° |
| 2026-04-23 21:07 | 21.07600 | -71.38025 | 36501 ft | 569 kts | 25° |
| 2026-04-23 21:07 | 21.10995 | -71.35801 | 36958 ft | 564 kts | 26° |
| 2026-04-23 21:07 | 21.14308 | -71.33556 | 37395 ft | 560 kts | 27° |
| 2026-04-23 21:08 | 21.17579 | -71.31307 | 37834 ft | 556 kts | 27° |
| 2026-04-23 21:08 | 21.20849 | -71.29067 | 38279 ft | 552 kts | 27° |
| 2026-04-23 21:08 | 21.24079 | -71.26870 | 38710 ft | 549 kts | 26° |
| 2026-04-23 21:08 | 21.27347 | -71.24663 | 38920 ft | 548 kts | 26° |
| 2026-04-23 21:09 | 21.33827 | -71.20313 | 39117 ft | 548 kts | 26° |
| 2026-04-23 21:09 | 21.40301 | -71.15970 | 39200 ft | 549 kts | 26° |
| 2026-04-23 21:10 | 21.46665 | -71.11372 | 39198 ft | 556 kts | 32° |
| 2026-04-23 21:10 | 21.52744 | -71.06106 | 39204 ft | 560 kts | 34° |
| 2026-04-23 21:11 | 21.58742 | -71.00800 | 39204 ft | 561 kts | 34° |
| 2026-04-23 21:11 | 21.64836 | -70.95484 | 39205 ft | 561 kts | 33° |
| 2026-04-23 21:12 | 21.70903 | -70.90227 | 39211 ft | 562 kts | 33° |
| 2026-04-23 21:12 | 21.77017 | -70.84927 | 39217 ft | 563 kts | 33° |
| 2026-04-23 21:13 | 21.83081 | -70.79641 | 39215 ft | 564 kts | 35° |
| 2026-04-23 21:13 | 21.88943 | -70.73941 | 39216 ft | 567 kts | 38° |
| 2026-04-23 21:14 | 21.94712 | -70.68100 | 39218 ft | 568 kts | 38° |
| 2026-04-23 21:14 | 22.00521 | -70.62281 | 39220 ft | 568 kts | 38° |
| 2026-04-23 21:15 | 22.06308 | -70.56529 | 39220 ft | 568 kts | 37° |
| 2026-04-23 21:15 | 22.12148 | -70.50724 | 39221 ft | 569 kts | 37° |
| 2026-04-23 21:16 | 22.17982 | -70.44914 | 39224 ft | 569 kts | 37° |
| 2026-04-23 21:16 | 22.23803 | -70.39110 | 39225 ft | 569 kts | 37° |
| 2026-04-23 21:17 | 22.29633 | -70.33286 | 39225 ft | 570 kts | 38° |
| 2026-04-23 21:17 | 22.34475 | -70.28417 | 39228 ft | 569 kts | 37° |
| 2026-04-23 21:18 | 22.41394 | -70.21780 | 39230 ft | 568 kts | 36° |
| 2026-04-23 21:18 | 22.47364 | -70.16154 | 39230 ft | 568 kts | 36° |
| 2026-04-23 21:19 | 22.53334 | -70.10495 | 39230 ft | 568 kts | 36° |
| 2026-04-23 21:19 | 22.59284 | -70.04832 | 39234 ft | 569 kts | 36° |
| 2026-04-23 21:20 | 22.65205 | -69.99184 | 39235 ft | 570 kts | 36° |
| 2026-04-23 21:20 | 22.71422 | -69.93903 | 39236 ft | 555 kts | 21° |
| 2026-04-23 21:21 | 22.74889 | -69.92195 | 39237 ft | 539 kts | 9° |
| 2026-04-23 21:21 | 22.78486 | -69.91239 | 39239 ft | 523 kts | 358° |
| 2026-04-23 21:21 | 22.82057 | -69.90927 | 39242 ft | 512 kts | 351° |
| 2026-04-23 21:21 | 22.85610 | -69.90990 | 39239 ft | 506 kts | 347° |
| 2026-04-23 21:22 | 22.92637 | -69.91533 | 39238 ft | 504 kts | 345° |
| 2026-04-23 21:22 | 22.99661 | -69.92147 | 39241 ft | 506 kts | 345° |
| 2026-04-23 21:23 | 23.06752 | -69.92722 | 39243 ft | 506 kts | 345° |
| 2026-04-23 21:23 | 23.13813 | -69.93272 | 39244 ft | 506 kts | 345° |
| 2026-04-23 21:24 | 23.20870 | -69.93817 | 39245 ft | 507 kts | 345° |
| 2026-04-23 21:24 | 23.27909 | -69.94361 | 39248 ft | 507 kts | 345° |
| 2026-04-23 21:25 | 23.34993 | -69.94910 | 39249 ft | 507 kts | 345° |
| 2026-04-23 21:25 | 23.42052 | -69.95458 | 39250 ft | 506 kts | 345° |
| 2026-04-23 21:26 | 23.49132 | -69.96007 | 39250 ft | 506 kts | 345° |
| 2026-04-23 21:26 | 23.56179 | -69.96555 | 39252 ft | 507 kts | 345° |
| 2026-04-23 21:27 | 23.63214 | -69.97102 | 39253 ft | 507 kts | 345° |
| 2026-04-23 21:27 | 23.70278 | -69.97652 | 39258 ft | 507 kts | 345° |
| 2026-04-23 21:28 | 23.77369 | -69.98206 | 39257 ft | 507 kts | 345° |
| 2026-04-23 21:28 | 23.84428 | -69.98756 | 39260 ft | 508 kts | 344° |
| 2026-04-23 21:29 | 23.91509 | -69.99309 | 39260 ft | 507 kts | 344° |
| 2026-04-23 21:29 | 23.98566 | -69.99861 | 39262 ft | 507 kts | 344° |
| 2026-04-23 21:30 | 24.05622 | -70.00415 | 39264 ft | 508 kts | 344° |
| 2026-04-23 21:30 | 24.12722 | -70.00971 | 39261 ft | 508 kts | 344° |
| 2026-04-23 21:31 | 24.19784 | -70.01498 | 39265 ft | 510 kts | 345° |
| 2026-04-23 21:31 | 24.26933 | -70.01828 | 39266 ft | 511 kts | 346° |
| 2026-04-23 21:32 | 24.34060 | -70.02123 | 39269 ft | 511 kts | 346° |
| 2026-04-23 21:32 | 24.41234 | -70.02439 | 39268 ft | 511 kts | 346° |
| 2026-04-23 21:33 | 24.48319 | -70.02761 | 39267 ft | 510 kts | 346° |
| 2026-04-23 21:33 | 24.55470 | -70.03089 | 39274 ft | 510 kts | 346° |
| 2026-04-23 21:34 | 24.62554 | -70.03414 | 39270 ft | 510 kts | 346° |
| 2026-04-23 21:34 | 24.69656 | -70.03741 | 39271 ft | 510 kts | 346° |
| 2026-04-23 21:35 | 24.76795 | -70.04069 | 39278 ft | 510 kts | 346° |
| 2026-04-23 21:35 | 24.83870 | -70.04395 | 39275 ft | 509 kts | 346° |
| 2026-04-23 21:36 | 24.94557 | -70.04887 | 39277 ft | 509 kts | 346° |
| 2026-04-23 21:37 | 25.01553 | -70.05419 | 39286 ft | 496 kts | 339° |
| 2026-04-23 21:37 | 25.08306 | -70.06895 | 39293 ft | 489 kts | 335° |
| 2026-04-23 21:38 | 25.14987 | -70.08526 | 39290 ft | 490 kts | 335° |
| 2026-04-23 21:38 | 25.21674 | -70.10109 | 39287 ft | 490 kts | 336° |
| 2026-04-23 21:39 | 25.28343 | -70.11655 | 39289 ft | 490 kts | 336° |
| 2026-04-23 21:39 | 25.35044 | -70.13201 | 39292 ft | 490 kts | 336° |
| 2026-04-23 21:40 | 25.40637 | -70.14492 | 39293 ft | 490 kts | 336° |
| 2026-04-23 21:40 | 25.48482 | -70.16305 | 39292 ft | 490 kts | 336° |
| 2026-04-23 21:41 | 25.55143 | -70.17847 | 39297 ft | 490 kts | 336° |
| 2026-04-23 21:41 | 25.61890 | -70.19411 | 39301 ft | 491 kts | 336° |
| 2026-04-23 21:42 | 25.68545 | -70.20955 | 39303 ft | 490 kts | 336° |
| 2026-04-23 21:42 | 25.75254 | -70.22514 | 39305 ft | 490 kts | 336° |
| 2026-04-23 21:43 | 25.81940 | -70.24068 | 39307 ft | 489 kts | 336° |
| 2026-04-23 21:43 | 25.88621 | -70.25624 | 39304 ft | 489 kts | 336° |
| 2026-04-23 21:44 | 25.95325 | -70.27187 | 39303 ft | 489 kts | 336° |
| 2026-04-23 21:44 | 26.01997 | -70.28744 | 39304 ft | 489 kts | 336° |
| 2026-04-23 21:45 | 26.08632 | -70.30295 | 39303 ft | 489 kts | 336° |
| 2026-04-23 21:45 | 26.15303 | -70.31853 | 39303 ft | 486 kts | 336° |
| 2026-04-23 21:46 | 26.21983 | -70.33420 | 39303 ft | 486 kts | 336° |
| 2026-04-23 21:46 | 26.28579 | -70.34967 | 39303 ft | 486 kts | 336° |
| 2026-04-23 21:47 | 26.35256 | -70.36535 | 39303 ft | 485 kts | 336° |
| 2026-04-23 21:47 | 26.41868 | -70.38088 | 39303 ft | 484 kts | 336° |
| 2026-04-23 21:48 | 26.48490 | -70.39647 | 39304 ft | 484 kts | 337° |
| 2026-04-23 21:48 | 26.55052 | -70.41193 | 39303 ft | 484 kts | 337° |
| 2026-04-23 21:49 | 26.61660 | -70.42751 | 39302 ft | 484 kts | 337° |
| 2026-04-23 21:49 | 26.68317 | -70.44322 | 39303 ft | 483 kts | 337° |
| 2026-04-23 21:50 | 26.74922 | -70.45884 | 39303 ft | 483 kts | 337° |
| 2026-04-23 21:50 | 26.81507 | -70.47442 | 39302 ft | 483 kts | 337° |
| 2026-04-23 21:51 | 26.88104 | -70.49005 | 39302 ft | 483 kts | 337° |
| 2026-04-23 21:51 | 26.94698 | -70.50571 | 39303 ft | 482 kts | 337° |
| 2026-04-23 21:52 | 27.01263 | -70.52129 | 39303 ft | 483 kts | 337° |
| 2026-04-23 21:52 | 27.07854 | -70.53696 | 39305 ft | 482 kts | 338° |
| 2026-04-23 21:53 | 27.14431 | -70.55263 | 39307 ft | 482 kts | 338° |
| 2026-04-23 21:53 | 27.20992 | -70.56827 | 39311 ft | 482 kts | 338° |
| 2026-04-23 21:54 | 27.27601 | -70.58406 | 39315 ft | 482 kts | 338° |
| 2026-04-23 21:54 | 27.34175 | -70.59977 | 39310 ft | 482 kts | 338° |
| 2026-04-23 21:55 | 27.40723 | -70.61543 | 39312 ft | 481 kts | 338° |
| 2026-04-23 21:55 | 27.47311 | -70.63121 | 39322 ft | 481 kts | 338° |
| 2026-04-23 21:56 | 27.53892 | -70.64700 | 39316 ft | 481 kts | 338° |
| 2026-04-23 21:56 | 27.60456 | -70.66299 | 39324 ft | 482 kts | 338° |
| 2026-04-23 21:57 | 27.67019 | -70.67911 | 39319 ft | 483 kts | 338° |
| 2026-04-23 21:57 | 27.73649 | -70.69518 | 39314 ft | 483 kts | 339° |
| 2026-04-23 21:58 | 27.80220 | -70.71103 | 39327 ft | 482 kts | 339° |
| 2026-04-23 21:58 | 27.86793 | -70.72688 | 39332 ft | 482 kts | 339° |
| 2026-04-23 21:59 | 27.93344 | -70.74271 | 39325 ft | 482 kts | 339° |
| 2026-04-23 21:59 | 27.99930 | -70.75864 | 39331 ft | 482 kts | 339° |
| 2026-04-23 22:00 | 28.09817 | -70.78261 | 39327 ft | 483 kts | 339° |
| 2026-04-23 22:00 | 28.16436 | -70.79868 | 39326 ft | 482 kts | 340° |
| 2026-04-23 22:01 | 28.23007 | -70.81465 | 39330 ft | 483 kts | 340° |
| 2026-04-23 22:01 | 28.29592 | -70.83067 | 39332 ft | 483 kts | 340° |
| 2026-04-23 22:02 | 28.36175 | -70.84672 | 39331 ft | 483 kts | 340° |
| 2026-04-23 22:02 | 28.42774 | -70.86281 | 39336 ft | 484 kts | 340° |
| 2026-04-23 22:03 | 28.49333 | -70.87883 | 39335 ft | 484 kts | 340° |
| 2026-04-23 22:03 | 28.55957 | -70.89503 | 39334 ft | 484 kts | 340° |
| 2026-04-23 22:04 | 28.62567 | -70.91121 | 39335 ft | 484 kts | 341° |
| 2026-04-23 22:04 | 28.69131 | -70.92730 | 39341 ft | 484 kts | 341° |
| 2026-04-23 22:05 | 28.75774 | -70.94360 | 39336 ft | 484 kts | 341° |
| 2026-04-23 22:05 | 28.82358 | -70.95979 | 39338 ft | 485 kts | 341° |
| 2026-04-23 22:06 | 28.88965 | -70.97605 | 39343 ft | 485 kts | 341° |
| 2026-04-23 22:06 | 28.95587 | -70.99237 | 39341 ft | 485 kts | 341° |
| 2026-04-23 22:07 | 29.02191 | -71.00867 | 39345 ft | 485 kts | 341° |
| 2026-04-23 22:07 | 29.08810 | -71.02503 | 39348 ft | 486 kts | 341° |
| 2026-04-23 22:08 | 29.15456 | -71.04148 | 39353 ft | 486 kts | 341° |
| 2026-04-23 22:08 | 29.22089 | -71.05792 | 39352 ft | 486 kts | 341° |
| 2026-04-23 22:09 | 29.28694 | -71.07431 | 39349 ft | 486 kts | 341° |
| 2026-04-23 22:09 | 29.35337 | -71.09081 | 39354 ft | 486 kts | 342° |
| 2026-04-23 22:10 | 29.41946 | -71.10725 | 39348 ft | 486 kts | 342° |
| 2026-04-23 22:10 | 29.48547 | -71.12369 | 39350 ft | 485 kts | 342° |
| 2026-04-23 22:11 | 29.55217 | -71.14033 | 39349 ft | 485 kts | 342° |
| 2026-04-23 22:11 | 29.61805 | -71.15678 | 39352 ft | 485 kts | 342° |
| 2026-04-23 22:12 | 29.68433 | -71.17336 | 39352 ft | 485 kts | 342° |
| 2026-04-23 22:12 | 29.74999 | -71.18980 | 39348 ft | 485 kts | 342° |
| 2026-04-23 22:13 | 29.81652 | -71.20649 | 39359 ft | 485 kts | 343° |
| 2026-04-23 22:13 | 29.88211 | -71.22295 | 39344 ft | 484 kts | 343° |
| 2026-04-23 22:14 | 29.94834 | -71.23960 | 39362 ft | 484 kts | 343° |
| 2026-04-23 22:14 | 30.01404 | -71.25615 | 39354 ft | 484 kts | 343° |
| 2026-04-23 22:15 | 30.08008 | -71.27280 | 39346 ft | 484 kts | 343° |
| 2026-04-23 22:15 | 30.14646 | -71.28956 | 39351 ft | 484 kts | 343° |
| 2026-04-23 22:16 | 30.21225 | -71.30621 | 39353 ft | 484 kts | 343° |
| 2026-04-23 22:16 | 30.27821 | -71.32291 | 39351 ft | 483 kts | 343° |
| 2026-04-23 22:17 | 30.34402 | -71.33959 | 39351 ft | 483 kts | 343° |
| 2026-04-23 22:17 | 30.40998 | -71.35633 | 39346 ft | 483 kts | 343° |
| 2026-04-23 22:18 | 30.47589 | -71.37309 | 39357 ft | 483 kts | 343° |
| 2026-04-23 22:18 | 30.54153 | -71.38979 | 39344 ft | 483 kts | 343° |
| 2026-04-23 22:19 | 30.60723 | -71.40654 | 39346 ft | 483 kts | 343° |
| 2026-04-23 22:19 | 30.67283 | -71.42329 | 39352 ft | 483 kts | 344° |
| 2026-04-23 22:20 | 30.73881 | -71.44016 | 39348 ft | 483 kts | 344° |
| 2026-04-23 22:20 | 30.80435 | -71.45693 | 39338 ft | 482 kts | 344° |
| 2026-04-23 22:21 | 30.87063 | -71.47392 | 39349 ft | 483 kts | 344° |
| 2026-04-23 22:21 | 30.93598 | -71.49069 | 39344 ft | 482 kts | 344° |
| 2026-04-23 22:22 | 31.00210 | -71.50768 | 39347 ft | 482 kts | 344° |
| 2026-04-23 22:22 | 31.06778 | -71.52460 | 39346 ft | 482 kts | 344° |
| 2026-04-23 22:23 | 31.13316 | -71.54145 | 39344 ft | 482 kts | 344° |
| 2026-04-23 22:23 | 31.19903 | -71.55846 | 39344 ft | 482 kts | 344° |
| 2026-04-23 22:24 | 31.26456 | -71.57540 | 39343 ft | 481 kts | 344° |
| 2026-04-23 22:24 | 31.33011 | -71.59238 | 39343 ft | 480 kts | 344° |
| 2026-04-23 22:25 | 31.39530 | -71.60927 | 39339 ft | 480 kts | 344° |
| 2026-04-23 22:25 | 31.46055 | -71.62621 | 39335 ft | 479 kts | 344° |
| 2026-04-23 22:26 | 31.52586 | -71.64319 | 39341 ft | 479 kts | 344° |
| 2026-04-23 22:26 | 31.59117 | -71.66037 | 39338 ft | 478 kts | 343° |
| 2026-04-23 22:27 | 31.65607 | -71.67773 | 39337 ft | 478 kts | 343° |
| 2026-04-23 22:27 | 31.72120 | -71.69492 | 39333 ft | 478 kts | 344° |
| 2026-04-23 22:28 | 31.78601 | -71.71190 | 39341 ft | 477 kts | 344° |
| 2026-04-23 22:28 | 31.85130 | -71.72900 | 39320 ft | 477 kts | 344° |
| 2026-04-23 22:29 | 31.91604 | -71.74597 | 39336 ft | 476 kts | 344° |
| 2026-04-23 22:29 | 31.98074 | -71.76296 | 39340 ft | 476 kts | 344° |
| 2026-04-23 22:30 | 32.04559 | -71.78002 | 39321 ft | 475 kts | 344° |
| 2026-04-23 22:30 | 32.11021 | -71.79704 | 39327 ft | 475 kts | 344° |
| 2026-04-23 22:31 | 32.17474 | -71.81408 | 39315 ft | 475 kts | 344° |
| 2026-04-23 22:31 | 32.23956 | -71.83121 | 39318 ft | 474 kts | 344° |
| 2026-04-23 22:32 | 32.30388 | -71.84823 | 39317 ft | 474 kts | 344° |
| 2026-04-23 22:32 | 32.36832 | -71.86530 | 39314 ft | 474 kts | 344° |
| 2026-04-23 22:33 | 32.43285 | -71.88242 | 39311 ft | 473 kts | 344° |
| 2026-04-23 22:33 | 32.49749 | -71.89960 | 39303 ft | 473 kts | 344° |
| 2026-04-23 22:34 | 32.56194 | -71.91675 | 39300 ft | 473 kts | 344° |
| 2026-04-23 22:34 | 32.62583 | -71.93378 | 39302 ft | 472 kts | 344° |
| 2026-04-23 22:35 | 32.69029 | -71.95098 | 39304 ft | 472 kts | 345° |
| 2026-04-23 22:35 | 32.75462 | -71.96818 | 39300 ft | 472 kts | 345° |
| 2026-04-23 22:36 | 32.81880 | -71.98535 | 39295 ft | 471 kts | 345° |
| 2026-04-23 22:36 | 32.88256 | -72.00245 | 39287 ft | 471 kts | 345° |
| 2026-04-23 22:37 | 32.94672 | -72.01968 | 39291 ft | 471 kts | 345° |
| 2026-04-23 22:37 | 33.01097 | -72.03695 | 39284 ft | 471 kts | 345° |
| 2026-04-23 22:38 | 33.07511 | -72.05422 | 39278 ft | 470 kts | 345° |
| 2026-04-23 22:38 | 33.13913 | -72.07149 | 39286 ft | 470 kts | 345° |
| 2026-04-23 22:39 | 33.20320 | -72.08881 | 39279 ft | 470 kts | 345° |
| 2026-04-23 22:39 | 33.26694 | -72.10605 | 39276 ft | 470 kts | 345° |
| 2026-04-23 22:40 | 33.33074 | -72.12333 | 39274 ft | 469 kts | 345° |
| 2026-04-23 22:41 | 33.42657 | -72.14934 | 39263 ft | 468 kts | 345° |
| 2026-04-23 22:41 | 33.49029 | -72.16666 | 39264 ft | 468 kts | 345° |
| 2026-04-23 22:42 | 33.55403 | -72.18403 | 39260 ft | 468 kts | 345° |
| 2026-04-23 22:42 | 33.61740 | -72.20132 | 39264 ft | 467 kts | 345° |
| 2026-04-23 22:43 | 33.68091 | -72.21866 | 39259 ft | 467 kts | 345° |
| 2026-04-23 22:43 | 33.74431 | -72.23601 | 39264 ft | 466 kts | 345° |
| 2026-04-23 22:44 | 33.80766 | -72.25337 | 39245 ft | 466 kts | 345° |
| 2026-04-23 22:44 | 33.87109 | -72.27077 | 39243 ft | 465 kts | 345° |
| 2026-04-23 22:45 | 33.93417 | -72.28810 | 39253 ft | 465 kts | 345° |
| 2026-04-23 22:45 | 33.99795 | -72.30381 | 39250 ft | 466 kts | 350° |
| 2026-04-23 22:46 | 34.06278 | -72.31113 | 39244 ft | 467 kts | 353° |
| 2026-04-23 22:46 | 34.12793 | -72.31735 | 39235 ft | 467 kts | 352° |
| 2026-04-23 22:47 | 34.19286 | -72.32399 | 39234 ft | 467 kts | 352° |
| 2026-04-23 22:47 | 34.25758 | -72.33088 | 39232 ft | 466 kts | 352° |
| 2026-04-23 22:48 | 34.32211 | -72.33781 | 39227 ft | 466 kts | 352° |
| 2026-04-23 22:48 | 34.38687 | -72.34481 | 39226 ft | 466 kts | 352° |
| 2026-04-23 22:49 | 34.45156 | -72.35180 | 39230 ft | 465 kts | 352° |
| 2026-04-23 22:49 | 34.51625 | -72.35880 | 39216 ft | 465 kts | 352° |
| 2026-04-23 22:50 | 34.58093 | -72.36581 | 39219 ft | 465 kts | 352° |
| 2026-04-23 22:50 | 34.64537 | -72.37281 | 39218 ft | 464 kts | 352° |
| 2026-04-23 22:51 | 34.70989 | -72.37978 | 39209 ft | 464 kts | 353° |
| 2026-04-23 22:51 | 34.77455 | -72.37504 | 39209 ft | 469 kts | 4° |
| 2026-04-23 22:52 | 34.83953 | -72.36365 | 39206 ft | 469 kts | 5° |
| 2026-04-23 22:52 | 34.90404 | -72.35243 | 39204 ft | 469 kts | 4° |
| 2026-04-23 22:53 | 34.96919 | -72.34192 | 39200 ft | 467 kts | 1° |
| 2026-04-23 22:53 | 35.03421 | -72.33946 | 39203 ft | 464 kts | 357° |
| 2026-04-23 22:54 | 35.09870 | -72.33929 | 39197 ft | 464 kts | 357° |
| 2026-04-23 22:54 | 35.16350 | -72.33877 | 39194 ft | 464 kts | 357° |
| 2026-04-23 22:55 | 35.22828 | -72.33797 | 39193 ft | 463 kts | 357° |
| 2026-04-23 22:55 | 35.29260 | -72.33707 | 39192 ft | 463 kts | 357° |
| 2026-04-23 22:56 | 35.35713 | -72.33614 | 39189 ft | 462 kts | 357° |
| 2026-04-23 22:56 | 35.42172 | -72.33522 | 39190 ft | 462 kts | 357° |
| 2026-04-23 22:57 | 35.48624 | -72.33430 | 39190 ft | 461 kts | 357° |
| 2026-04-23 22:57 | 35.55058 | -72.33337 | 39189 ft | 461 kts | 357° |
| 2026-04-23 22:58 | 35.61471 | -72.33245 | 39190 ft | 461 kts | 357° |
| 2026-04-23 22:58 | 35.67873 | -72.33154 | 39182 ft | 460 kts | 357° |
| 2026-04-23 22:59 | 35.74280 | -72.33061 | 39184 ft | 459 kts | 357° |
| 2026-04-23 22:59 | 35.80656 | -72.32969 | 39183 ft | 458 kts | 357° |
| 2026-04-23 23:00 | 35.87083 | -72.32876 | 39179 ft | 458 kts | 357° |
| 2026-04-23 23:00 | 35.93412 | -72.32784 | 39181 ft | 457 kts | 357° |
| 2026-04-23 23:01 | 35.99789 | -72.32692 | 39181 ft | 456 kts | 357° |
| 2026-04-23 23:01 | 36.06070 | -72.33206 | 39184 ft | 449 kts | 346° |
| 2026-04-23 23:02 | 36.12118 | -72.35100 | 39186 ft | 449 kts | 342° |
| 2026-04-23 23:02 | 36.18177 | -72.37141 | 39182 ft | 449 kts | 343° |
| 2026-04-23 23:03 | 36.24244 | -72.39143 | 39188 ft | 449 kts | 343° |
| 2026-04-23 23:03 | 36.30275 | -72.41107 | 39195 ft | 449 kts | 343° |
| 2026-04-23 23:04 | 36.36329 | -72.43072 | 39180 ft | 448 kts | 343° |
| 2026-04-23 23:04 | 36.42369 | -72.45036 | 39192 ft | 448 kts | 343° |
| 2026-04-23 23:05 | 36.48405 | -72.47000 | 39188 ft | 447 kts | 343° |
| 2026-04-23 23:05 | 36.54419 | -72.48959 | 39188 ft | 447 kts | 343° |
| 2026-04-23 23:06 | 36.60417 | -72.50918 | 39189 ft | 446 kts | 343° |
| 2026-04-23 23:06 | 36.66449 | -72.52890 | 39196 ft | 446 kts | 343° |
| 2026-04-23 23:07 | 36.72531 | -72.54287 | 39201 ft | 448 kts | 354° |
| 2026-04-23 23:07 | 36.78778 | -72.54444 | 39189 ft | 449 kts | 357° |
| 2026-04-23 23:08 | 36.85042 | -72.54497 | 39197 ft | 450 kts | 356° |
| 2026-04-23 23:08 | 36.91318 | -72.54597 | 39208 ft | 449 kts | 356° |
| 2026-04-23 23:09 | 36.97551 | -72.54723 | 39191 ft | 448 kts | 356° |
| 2026-04-23 23:09 | 37.03813 | -72.54858 | 39192 ft | 448 kts | 356° |
| 2026-04-23 23:10 | 37.10066 | -72.54994 | 39190 ft | 447 kts | 356° |
| 2026-04-23 23:10 | 37.16310 | -72.55132 | 39192 ft | 447 kts | 356° |
| 2026-04-23 23:11 | 37.22530 | -72.55067 | 39186 ft | 451 kts | 4° |
| 2026-04-23 23:11 | 37.28624 | -72.52934 | 39190 ft | 459 kts | 15° |
| 2026-04-23 23:12 | 37.34664 | -72.50170 | 39189 ft | 459 kts | 15° |
| 2026-04-23 23:12 | 37.40656 | -72.47454 | 39186 ft | 459 kts | 14° |
| 2026-04-23 23:13 | 37.46687 | -72.44769 | 39188 ft | 458 kts | 14° |
| 2026-04-23 23:13 | 37.52736 | -72.42092 | 39186 ft | 458 kts | 14° |
| 2026-04-23 23:14 | 37.58730 | -72.39439 | 39188 ft | 458 kts | 14° |
| 2026-04-23 23:14 | 37.64772 | -72.36762 | 39189 ft | 458 kts | 14° |
| 2026-04-23 23:15 | 37.70763 | -72.34102 | 39184 ft | 458 kts | 14° |
| 2026-04-23 23:15 | 37.76781 | -72.31426 | 39191 ft | 457 kts | 14° |
| 2026-04-23 23:16 | 37.82794 | -72.28669 | 39179 ft | 459 kts | 19° |
| 2026-04-23 23:16 | 37.88428 | -72.24813 | 39181 ft | 465 kts | 25° |
| 2026-04-23 23:17 | 37.94033 | -72.20599 | 39184 ft | 466 kts | 25° |
| 2026-04-23 23:17 | 37.99625 | -72.16434 | 39179 ft | 466 kts | 24° |
| 2026-04-23 23:18 | 38.05223 | -72.12301 | 39172 ft | 466 kts | 24° |
| 2026-04-23 23:18 | 38.10818 | -72.08176 | 39172 ft | 465 kts | 24° |
| 2026-04-23 23:19 | 38.16428 | -72.04035 | 39176 ft | 467 kts | 24° |
| 2026-04-23 23:19 | 38.22048 | -71.99880 | 39130 ft | 466 kts | 24° |
| 2026-04-23 23:20 | 38.27813 | -71.96130 | 39172 ft | 454 kts | 12° |
| 2026-04-23 23:20 | 38.30866 | -71.95350 | 39180 ft | 446 kts | 1° |
| 2026-04-23 23:20 | 38.33963 | -71.95130 | 39176 ft | 445 kts | 357° |
| 2026-04-23 23:21 | 38.40122 | -71.95116 | 39171 ft | 445 kts | 356° |
| 2026-04-23 23:21 | 38.46359 | -71.95126 | 39171 ft | 445 kts | 356° |
| 2026-04-23 23:22 | 38.52575 | -71.95091 | 39170 ft | 445 kts | 357° |
| 2026-04-23 23:22 | 38.58757 | -71.95033 | 39168 ft | 444 kts | 357° |
| 2026-04-23 23:23 | 38.64935 | -71.94963 | 39159 ft | 444 kts | 357° |
| 2026-04-23 23:23 | 38.71107 | -71.94881 | 39159 ft | 443 kts | 357° |
| 2026-04-23 23:24 | 38.77300 | -71.94799 | 39160 ft | 443 kts | 357° |
| 2026-04-23 23:24 | 38.83450 | -71.94717 | 39157 ft | 442 kts | 357° |
| 2026-04-23 23:25 | 38.89636 | -71.94636 | 39157 ft | 442 kts | 357° |
| 2026-04-23 23:25 | 38.95759 | -71.94684 | 39146 ft | 437 kts | 350° |
| 2026-04-23 23:25 | 38.98701 | -71.95557 | 39158 ft | 433 kts | 339° |
| 2026-04-23 23:26 | 39.01403 | -71.97287 | 39154 ft | 432 kts | 327° |
| 2026-04-23 23:26 | 39.06195 | -72.02006 | 39153 ft | 434 kts | 322° |
| 2026-04-23 23:27 | 39.10827 | -72.06958 | 39168 ft | 434 kts | 322° |
| 2026-04-23 23:27 | 39.15446 | -72.11861 | 39158 ft | 435 kts | 322° |
| 2026-04-23 23:28 | 39.20105 | -72.16771 | 39160 ft | 434 kts | 322° |
| 2026-04-23 23:28 | 39.24773 | -72.21684 | 39169 ft | 434 kts | 323° |
| 2026-04-23 23:29 | 39.29479 | -72.26639 | 39152 ft | 433 kts | 322° |
| 2026-04-23 23:29 | 39.34133 | -72.31547 | 39162 ft | 433 kts | 323° |
| 2026-04-23 23:30 | 39.38789 | -72.36466 | 39169 ft | 432 kts | 322° |
| 2026-04-23 23:30 | 39.43442 | -72.41392 | 39166 ft | 431 kts | 322° |
| 2026-04-23 23:31 | 39.48079 | -72.46308 | 39161 ft | 431 kts | 323° |
| 2026-04-23 23:31 | 39.52716 | -72.51232 | 39165 ft | 431 kts | 322° |
| 2026-04-23 23:32 | 39.57334 | -72.56147 | 39153 ft | 430 kts | 323° |
| 2026-04-23 23:32 | 39.61940 | -72.61056 | 39168 ft | 430 kts | 323° |
| 2026-04-23 23:33 | 39.66575 | -72.66008 | 39158 ft | 429 kts | 322° |
| 2026-04-23 23:33 | 39.71129 | -72.70953 | 39178 ft | 429 kts | 322° |
| 2026-04-23 23:34 | 39.75740 | -72.75942 | 39159 ft | 429 kts | 322° |
| 2026-04-23 23:34 | 39.80311 | -72.80864 | 39151 ft | 429 kts | 322° |
| 2026-04-23 23:35 | 39.85231 | -72.85155 | 39166 ft | 425 kts | 333° |
| 2026-04-23 23:35 | 39.90507 | -72.88632 | 39149 ft | 426 kts | 334° |
| 2026-04-23 23:36 | 39.95803 | -72.92107 | 39162 ft | 425 kts | 334° |
| 2026-04-23 23:36 | 40.01059 | -72.95605 | 39160 ft | 426 kts | 333° |
| 2026-04-23 23:37 | 40.06317 | -72.99133 | 39158 ft | 425 kts | 334° |
| 2026-04-23 23:37 | 40.11521 | -73.02637 | 39168 ft | 425 kts | 334° |
| 2026-04-23 23:38 | 40.16763 | -73.06175 | 39155 ft | 425 kts | 334° |
| 2026-04-23 23:38 | 40.22271 | -73.08785 | 39151 ft | 425 kts | 352° |
| 2026-04-23 23:38 | 40.25252 | -73.08790 | 39154 ft | 430 kts | 3° |
| 2026-04-23 23:39 | 40.28178 | -73.07855 | 39145 ft | 439 kts | 15° |
| 2026-04-23 23:39 | 40.30925 | -73.06007 | 39147 ft | 451 kts | 27° |
| 2026-04-23 23:39 | 40.33379 | -73.03432 | 39150 ft | 460 kts | 34° |
| 2026-04-23 23:40 | 40.37996 | -72.97623 | 39140 ft | 463 kts | 36° |
| 2026-04-23 23:40 | 40.42662 | -72.91760 | 39143 ft | 462 kts | 35° |
| 2026-04-23 23:41 | 40.47323 | -72.86061 | 39136 ft | 462 kts | 34° |
| 2026-04-23 23:41 | 40.52073 | -72.80312 | 39129 ft | 462 kts | 34° |
| 2026-04-23 23:42 | 40.56770 | -72.74629 | 39141 ft | 462 kts | 34° |
| 2026-04-23 23:42 | 40.61484 | -72.68918 | 39130 ft | 462 kts | 34° |
| 2026-04-23 23:43 | 40.66188 | -72.63206 | 39130 ft | 462 kts | 34° |
| 2026-04-23 23:43 | 40.70874 | -72.57503 | 39120 ft | 461 kts | 34° |
| 2026-04-23 23:44 | 40.75592 | -72.51753 | 39117 ft | 462 kts | 34° |
| 2026-04-23 23:44 | 40.80252 | -72.46059 | 39112 ft | 462 kts | 34° |
| 2026-04-23 23:45 | 40.84976 | -72.40276 | 39119 ft | 462 kts | 33° |
| 2026-04-23 23:45 | 40.89631 | -72.34566 | 39108 ft | 462 kts | 34° |
| 2026-04-23 23:46 | 40.94379 | -72.28871 | 39112 ft | 459 kts | 31° |
| 2026-04-23 23:46 | 40.99260 | -72.23586 | 39099 ft | 458 kts | 30° |
| 2026-04-23 23:47 | 41.04190 | -72.18289 | 39110 ft | 458 kts | 30° |
| 2026-04-23 23:47 | 41.09132 | -72.12940 | 39093 ft | 458 kts | 30° |
| 2026-04-23 23:48 | 41.13931 | -72.07722 | 39080 ft | 460 kts | 30° |
| 2026-04-23 23:48 | 41.18815 | -72.02393 | 39084 ft | 462 kts | 30° |
| 2026-04-23 23:49 | 41.26233 | -71.94282 | 39060 ft | 464 kts | 30° |
| 2026-04-23 23:49 | 41.31194 | -71.88842 | 39082 ft | 465 kts | 30° |
| 2026-04-23 23:50 | 41.36161 | -71.83385 | 39077 ft | 466 kts | 30° |
| 2026-04-23 23:50 | 41.41099 | -71.77949 | 39044 ft | 467 kts | 30° |
| 2026-04-23 23:51 | 41.46077 | -71.72458 | 39071 ft | 469 kts | 30° |
| 2026-04-23 23:51 | 41.51047 | -71.66964 | 39097 ft | 469 kts | 30° |
| 2026-04-23 23:52 | 41.56089 | -71.61379 | 39077 ft | 471 kts | 30° |
| 2026-04-23 23:52 | 41.61079 | -71.55842 | 39048 ft | 472 kts | 30° |
| 2026-04-23 23:53 | 41.66080 | -71.50279 | 39103 ft | 474 kts | 30° |
| 2026-04-23 23:53 | 41.71114 | -71.44668 | 39023 ft | 475 kts | 30° |
| 2026-04-23 23:54 | 41.76159 | -71.39295 | 39043 ft | 473 kts | 28° |
| 2026-04-23 23:54 | 41.81372 | -71.33971 | 39043 ft | 476 kts | 28° |
| 2026-04-23 23:55 | 41.86600 | -71.28606 | 39034 ft | 478 kts | 29° |
| 2026-04-23 23:55 | 41.91850 | -71.23098 | 39020 ft | 481 kts | 29° |
| 2026-04-23 23:56 | 41.97060 | -71.17529 | 39041 ft | 483 kts | 30° |
| 2026-04-23 23:56 | 42.02242 | -71.11902 | 39034 ft | 486 kts | 30° |
| 2026-04-23 23:57 | 42.07448 | -71.06183 | 39019 ft | 489 kts | 31° |
| 2026-04-23 23:57 | 42.12573 | -71.00495 | 39028 ft | 490 kts | 31° |
| 2026-04-23 23:58 | 42.17826 | -70.94624 | 39043 ft | 491 kts | 31° |
| 2026-04-23 23:58 | 42.23027 | -70.88782 | 39073 ft | 493 kts | 31° |
| 2026-04-23 23:59 | 42.28272 | -70.82882 | 39060 ft | 494 kts | 31° |
| 2026-04-23 23:59 | 42.33542 | -70.76965 | 39048 ft | 494 kts | 31° |
| 2026-04-24 00:00 | 42.38835 | -70.71045 | 39044 ft | 495 kts | 31° |
| 2026-04-24 00:00 | 42.44130 | -70.65170 | 39041 ft | 494 kts | 31° |
| 2026-04-24 00:01 | 42.49422 | -70.59361 | 39044 ft | 493 kts | 31° |
| 2026-04-24 00:01 | 42.54801 | -70.53535 | 39045 ft | 493 kts | 30° |
| 2026-04-24 00:02 | 42.60130 | -70.47859 | 39042 ft | 491 kts | 30° |
| 2026-04-24 00:02 | 42.65528 | -70.42226 | 39052 ft | 491 kts | 29° |
| 2026-04-24 00:03 | 42.70996 | -70.36655 | 39046 ft | 490 kts | 28° |
| 2026-04-24 00:03 | 42.76460 | -70.31175 | 39049 ft | 491 kts | 29° |
| 2026-04-24 00:04 | 42.81937 | -70.25567 | 39045 ft | 492 kts | 30° |
| 2026-04-24 00:04 | 42.87341 | -70.19915 | 39053 ft | 493 kts | 30° |
| 2026-04-24 00:05 | 42.92760 | -70.14146 | 39052 ft | 495 kts | 31° |
| 2026-04-24 00:05 | 42.98088 | -70.08387 | 39033 ft | 494 kts | 31° |
| 2026-04-24 00:06 | 43.03486 | -70.02483 | 39041 ft | 496 kts | 31° |
| 2026-04-24 00:06 | 43.08807 | -69.96620 | 39033 ft | 497 kts | 32° |
| 2026-04-24 00:07 | 43.14152 | -69.90700 | 39059 ft | 497 kts | 32° |
| 2026-04-24 00:07 | 43.19533 | -69.84724 | 39025 ft | 497 kts | 32° |
| 2026-04-24 00:08 | 43.24898 | -69.78767 | 39027 ft | 498 kts | 32° |
| 2026-04-24 00:08 | 43.30296 | -69.72798 | 39035 ft | 498 kts | 32° |
| 2026-04-24 00:09 | 43.35666 | -69.66898 | 39037 ft | 498 kts | 32° |
| 2026-04-24 00:09 | 43.41105 | -69.60980 | 39030 ft | 498 kts | 32° |
| 2026-04-24 00:10 | 43.46552 | -69.55134 | 39032 ft | 499 kts | 31° |
| 2026-04-24 00:10 | 43.52027 | -69.49356 | 39024 ft | 498 kts | 31° |
| 2026-04-24 00:11 | 43.57571 | -69.43621 | 39030 ft | 498 kts | 30° |
| 2026-04-24 00:11 | 43.63157 | -69.37978 | 39029 ft | 497 kts | 30° |
| 2026-04-24 00:12 | 43.68743 | -69.32458 | 39029 ft | 497 kts | 31° |
| 2026-04-24 00:12 | 43.74344 | -69.26836 | 39020 ft | 498 kts | 31° |
| 2026-04-24 00:13 | 43.79926 | -69.21107 | 39028 ft | 499 kts | 31° |
| 2026-04-24 00:13 | 43.85461 | -69.15314 | 39023 ft | 500 kts | 32° |
| 2026-04-24 00:14 | 43.91002 | -69.09425 | 39031 ft | 500 kts | 33° |
| 2026-04-24 00:14 | 43.96486 | -69.03524 | 39030 ft | 501 kts | 33° |
| 2026-04-24 00:15 | 44.01974 | -68.97562 | 39018 ft | 501 kts | 33° |
| 2026-04-24 00:15 | 44.07440 | -68.91589 | 39038 ft | 501 kts | 33° |
| 2026-04-24 00:16 | 44.12855 | -68.85657 | 39018 ft | 502 kts | 33° |
| 2026-04-24 00:16 | 44.17449 | -68.80622 | 39022 ft | 503 kts | 33° |
| 2026-04-24 00:17 | 44.23869 | -68.73605 | 39028 ft | 503 kts | 33° |
| 2026-04-24 00:17 | 44.29376 | -68.67625 | 39016 ft | 503 kts | 33° |
| 2026-04-24 00:18 | 44.34874 | -68.61713 | 39034 ft | 503 kts | 33° |
| 2026-04-24 00:18 | 44.40446 | -68.55799 | 39010 ft | 503 kts | 32° |
| 2026-04-24 00:19 | 44.46056 | -68.49942 | 39023 ft | 503 kts | 32° |
| 2026-04-24 00:19 | 44.51665 | -68.44200 | 39027 ft | 503 kts | 31° |
| 2026-04-24 00:20 | 44.57350 | -68.38516 | 39024 ft | 503 kts | 31° |
| 2026-04-24 00:20 | 44.63084 | -68.32919 | 39011 ft | 503 kts | 31° |
| 2026-04-24 00:21 | 44.68782 | -68.27283 | 39016 ft | 504 kts | 32° |
| 2026-04-24 00:21 | 44.74472 | -68.21522 | 39012 ft | 505 kts | 32° |
| 2026-04-24 00:22 | 44.80145 | -68.15662 | 39023 ft | 506 kts | 33° |
| 2026-04-24 00:22 | 44.85762 | -68.09763 | 39016 ft | 506 kts | 33° |
| 2026-04-24 00:23 | 44.91393 | -68.03771 | 39010 ft | 507 kts | 33° |
| 2026-04-24 00:23 | 44.96999 | -67.97749 | 39016 ft | 507 kts | 34° |
| 2026-04-24 00:24 | 45.02594 | -67.91698 | 39019 ft | 508 kts | 34° |
| 2026-04-24 00:24 | 45.08225 | -67.85592 | 39017 ft | 508 kts | 34° |
| 2026-04-24 00:25 | 45.13787 | -67.79560 | 39013 ft | 508 kts | 34° |
| 2026-04-24 00:25 | 45.19359 | -67.73534 | 39009 ft | 508 kts | 34° |
| 2026-04-24 00:26 | 45.24997 | -67.67473 | 39013 ft | 507 kts | 34° |
| 2026-04-24 00:26 | 45.30647 | -67.61455 | 39013 ft | 507 kts | 33° |
| 2026-04-24 00:27 | 45.36307 | -67.55507 | 39019 ft | 507 kts | 33° |
| 2026-04-24 00:27 | 45.41980 | -67.49642 | 39013 ft | 507 kts | 33° |
| 2026-04-24 00:28 | 45.47715 | -67.43833 | 39016 ft | 506 kts | 32° |
| 2026-04-24 00:28 | 45.53488 | -67.38122 | 39017 ft | 506 kts | 31° |
| 2026-04-24 00:29 | 45.59273 | -67.32530 | 39014 ft | 505 kts | 32° |
| 2026-04-24 00:29 | 45.65079 | -67.26825 | 39005 ft | 506 kts | 32° |
| 2026-04-24 00:30 | 45.70826 | -67.21039 | 39010 ft | 506 kts | 33° |
| 2026-04-24 00:30 | 45.76511 | -67.15198 | 39003 ft | 506 kts | 33° |
| 2026-04-24 00:31 | 45.82216 | -67.09239 | 39009 ft | 506 kts | 34° |
| 2026-04-24 00:31 | 45.87876 | -67.03245 | 39015 ft | 506 kts | 34° |
| 2026-04-24 00:32 | 45.93500 | -66.97231 | 39016 ft | 506 kts | 34° |
| 2026-04-24 00:32 | 45.99142 | -66.91157 | 39022 ft | 506 kts | 34° |
| 2026-04-24 00:33 | 46.04778 | -66.85075 | 39019 ft | 506 kts | 34° |
| 2026-04-24 00:33 | 46.10362 | -66.79051 | 39017 ft | 507 kts | 34° |
| 2026-04-24 00:34 | 46.16011 | -66.72979 | 39015 ft | 507 kts | 34° |
| 2026-04-24 00:34 | 46.21675 | -66.66932 | 39013 ft | 507 kts | 34° |
| 2026-04-24 00:35 | 46.27349 | -66.60935 | 39012 ft | 507 kts | 34° |
| 2026-04-24 00:35 | 46.33086 | -66.54955 | 39010 ft | 507 kts | 33° |
| 2026-04-24 00:36 | 46.38873 | -66.49147 | 39006 ft | 504 kts | 28° |
| 2026-04-24 00:36 | 46.42040 | -66.47066 | 39012 ft | 501 kts | 17° |
| 2026-04-24 00:36 | 46.45381 | -66.45969 | 39008 ft | 499 kts | 5° |